Etusivu
METAR-TAF:

METAR-TAF

Lentoasemat :

Aomori, Japani

Leveyspiiri: 40-44N, Pituuspiiri: 140-42E, korkeus merenpinnasta: 199 m

Tämänhetkinen sää

Tämä raportti tehtiin 39 minuuttia sitten, kello 03.00 UTC
Tuuli 12 kn etelästä/lounaasta
Lämpötila 30°C
Kosteus 31%
Ilmanpaine 1016 hPa
Näkyvyys 10 km tai enemmän
ei pilviä alle 1500 m:ssä eikä cumulonimbus-pilviä

METAR: RJSA 260300Z 20012KT CAVOK 30/11 Q1016

Aika: 12:39 (03:39 UTC)

Sääennuste

Tämä raportti tehtiin 4 tuntia ja 34 minuuttia sitten, kello 23.05 UTC
Ennuste voimassa 26. päivästä klo 00 UTC - 27. päivään klo 06 UTC
Tuuli 15 kn etelästä/lounaasta
Näkyvyys 10 km tai enemmän
Muutamia pilviä 4000 ft:n korkeudessa
Tulossa
26. päivästä klo 15 UTC - 26. päivään klo 18 UTC
Tuuli 5 kn etelästä
Tulossa
27. päivästä klo 03 UTC - 27. päivään klo 06 UTC
Tuuli 8 kn pohjoisesta/koillisesta

TAF: RJSA 252305Z 2600/2706 21015KT 9999 FEW040 BECMG 2615/2618 19005KT BECMG 2703/2706 03008KT

Säähavainnot ja -ennusteet yli 4000 lentoasemalta (METAR- ja TAF-raportit).

Käytössä olevat sääasemat on merkitty karttaan keltaisilla ja punaisilla pisteillä.

Aseta hiiri pisteen päälle nähdäksesi sääaseman nimen.

Klikkaa sitten nähdäksesi säähavainnot ja -ennusteet.

Kartan vaihtaminen: klikkaa mustalla rastilla varustettuja vihreitä pisteitä, niin voit zoomata sisään; viivalla varustettua vihreää pistettä, niin voit zoomata ulos tai vihreitä nuolia, niin pääset viereisille kartoille.


METAR-TAF: